sensor_id;sensor_type;location;lat;lon;timestamp;P1;durP1;ratioP1;P2;durP2;ratioP2
52614;SDS011;38508;53.158;6.614;2023-05-20T00:01:01;12.70;;;4.10;;
52614;SDS011;38508;53.158;6.614;2023-05-20T00:03:26;14.50;;;4.30;;
52614;SDS011;38508;53.158;6.614;2023-05-20T00:05:53;10.15;;;4.38;;
52614;SDS011;38508;53.158;6.614;2023-05-20T00:08:19;13.55;;;5.15;;
52614;SDS011;38508;53.158;6.614;2023-05-20T00:10:45;14.45;;;4.60;;
52614;SDS011;38508;53.158;6.614;2023-05-20T00:13:10;11.50;;;4.03;;
52614;SDS011;38508;53.158;6.614;2023-05-20T00:15:36;11.63;;;4.55;;
52614;SDS011;38508;53.158;6.614;2023-05-20T00:18:02;9.38;;;4.28;;
52614;SDS011;38508;53.158;6.614;2023-05-20T00:20:28;9.88;;;4.32;;
52614;SDS011;38508;53.158;6.614;2023-05-20T00:22:54;9.32;;;4.10;;
52614;SDS011;38508;53.158;6.614;2023-05-20T00:25:19;13.02;;;4.35;;
52614;SDS011;38508;53.158;6.614;2023-05-20T00:27:46;10.45;;;4.90;;
52614;SDS011;38508;53.158;6.614;2023-05-20T00:30:12;12.40;;;4.60;;
52614;SDS011;38508;53.158;6.614;2023-05-20T00:32:38;9.30;;;3.90;;
52614;SDS011;38508;53.158;6.614;2023-05-20T00:35:03;12.52;;;4.70;;
52614;SDS011;38508;53.158;6.614;2023-05-20T00:37:30;9.70;;;4.53;;
52614;SDS011;38508;53.158;6.614;2023-05-20T00:39:55;11.40;;;4.90;;
52614;SDS011;38508;53.158;6.614;2023-05-20T00:42:25;12.00;;;4.70;;
52614;SDS011;38508;53.158;6.614;2023-05-20T00:44:52;12.38;;;5.30;;
52614;SDS011;38508;53.158;6.614;2023-05-20T00:47:19;14.60;;;5.05;;
52614;SDS011;38508;53.158;6.614;2023-05-20T00:49:48;12.55;;;4.80;;
52614;SDS011;38508;53.158;6.614;2023-05-20T00:52:15;10.52;;;4.50;;
52614;SDS011;38508;53.158;6.614;2023-05-20T00:54:42;12.95;;;4.80;;
52614;SDS011;38508;53.158;6.614;2023-05-20T00:57:09;10.52;;;3.92;;
52614;SDS011;38508;53.158;6.614;2023-05-20T00:59:36;13.50;;;4.50;;
52614;SDS011;38508;53.158;6.614;2023-05-20T01:02:05;9.90;;;4.13;;
52614;SDS011;38508;53.158;6.614;2023-05-20T01:04:31;9.38;;;4.43;;
52614;SDS011;38508;53.158;6.614;2023-05-20T01:06:58;10.57;;;4.53;;
52614;SDS011;38508;53.158;6.614;2023-05-20T01:09:26;9.35;;;4.28;;
52614;SDS011;38508;53.158;6.614;2023-05-20T01:11:55;13.07;;;4.70;;
52614;SDS011;38508;53.158;6.614;2023-05-20T01:14:34;10.93;;;4.93;;
52614;SDS011;38508;53.158;6.614;2023-05-20T01:17:02;11.02;;;4.20;;
52614;SDS011;38508;53.158;6.614;2023-05-20T01:19:40;12.85;;;4.65;;
52614;SDS011;38508;53.158;6.614;2023-05-20T01:22:11;10.38;;;4.13;;
52614;SDS011;38508;53.158;6.614;2023-05-20T01:24:41;7.65;;;4.18;;
52614;SDS011;38508;53.158;6.614;2023-05-20T01:27:08;8.40;;;3.80;;
52614;SDS011;38508;53.158;6.614;2023-05-20T01:29:36;9.50;;;4.32;;
52614;SDS011;38508;53.158;6.614;2023-05-20T01:32:06;12.32;;;4.05;;
52614;SDS011;38508;53.158;6.614;2023-05-20T01:34:35;8.43;;;3.80;;
52614;SDS011;38508;53.158;6.614;2023-05-20T01:37:03;8.98;;;3.63;;
52614;SDS011;38508;53.158;6.614;2023-05-20T01:39:31;9.27;;;3.90;;
52614;SDS011;38508;53.158;6.614;2023-05-20T01:42:00;8.38;;;3.75;;
52614;SDS011;38508;53.158;6.614;2023-05-20T01:44:27;11.43;;;3.70;;
52614;SDS011;38508;53.158;6.614;2023-05-20T01:46:54;10.32;;;4.43;;
52614;SDS011;38508;53.158;6.614;2023-05-20T01:49:19;10.18;;;3.85;;
52614;SDS011;38508;53.158;6.614;2023-05-20T01:51:45;7.28;;;3.85;;
52614;SDS011;38508;53.158;6.614;2023-05-20T01:54:11;15.60;;;5.05;;
52614;SDS011;38508;53.158;6.614;2023-05-20T01:56:37;8.23;;;4.00;;
52614;SDS011;38508;53.158;6.614;2023-05-20T01:59:03;8.02;;;4.20;;
52614;SDS011;38508;53.158;6.614;2023-05-20T02:01:29;8.73;;;4.10;;
52614;SDS011;38508;53.158;6.614;2023-05-20T02:03:54;11.70;;;4.03;;
52614;SDS011;38508;53.158;6.614;2023-05-20T02:06:20;8.95;;;4.43;;
52614;SDS011;38508;53.158;6.614;2023-05-20T02:08:46;10.68;;;4.13;;
52614;SDS011;38508;53.158;6.614;2023-05-20T02:11:11;12.07;;;4.53;;
52614;SDS011;38508;53.158;6.614;2023-05-20T02:13:37;12.52;;;3.92;;
52614;SDS011;38508;53.158;6.614;2023-05-20T02:16:03;8.93;;;4.00;;
52614;SDS011;38508;53.158;6.614;2023-05-20T02:18:29;9.75;;;3.90;;
52614;SDS011;38508;53.158;6.614;2023-05-20T02:21:00;11.15;;;4.55;;
52614;SDS011;38508;53.158;6.614;2023-05-20T02:23:28;9.43;;;4.82;;
52614;SDS011;38508;53.158;6.614;2023-05-20T02:25:54;12.73;;;4.40;;
52614;SDS011;38508;53.158;6.614;2023-05-20T02:28:20;8.52;;;4.22;;
52614;SDS011;38508;53.158;6.614;2023-05-20T02:30:46;9.27;;;4.35;;
52614;SDS011;38508;53.158;6.614;2023-05-20T02:33:11;8.68;;;3.75;;
52614;SDS011;38508;53.158;6.614;2023-05-20T02:35:38;9.77;;;3.95;;
52614;SDS011;38508;53.158;6.614;2023-05-20T02:38:04;10.35;;;4.90;;
52614;SDS011;38508;53.158;6.614;2023-05-20T02:40:30;8.68;;;3.72;;
52614;SDS011;38508;53.158;6.614;2023-05-20T02:42:55;10.27;;;3.83;;
52614;SDS011;38508;53.158;6.614;2023-05-20T02:45:22;9.27;;;4.25;;
52614;SDS011;38508;53.158;6.614;2023-05-20T02:47:47;8.63;;;4.20;;
52614;SDS011;38508;53.158;6.614;2023-05-20T02:50:13;8.75;;;3.95;;
52614;SDS011;38508;53.158;6.614;2023-05-20T02:52:39;8.27;;;4.30;;
52614;SDS011;38508;53.158;6.614;2023-05-20T02:55:06;12.65;;;4.35;;
52614;SDS011;38508;53.158;6.614;2023-05-20T02:57:32;10.30;;;3.90;;
52614;SDS011;38508;53.158;6.614;2023-05-20T03:00:02;8.73;;;4.30;;
52614;SDS011;38508;53.158;6.614;2023-05-20T03:02:31;8.48;;;4.15;;
52614;SDS011;38508;53.158;6.614;2023-05-20T03:04:57;5.90;;;3.50;;
52614;SDS011;38508;53.158;6.614;2023-05-20T03:07:23;8.00;;;3.80;;
52614;SDS011;38508;53.158;6.614;2023-05-20T03:09:50;7.05;;;3.90;;
52614;SDS011;38508;53.158;6.614;2023-05-20T03:12:16;7.15;;;4.00;;
52614;SDS011;38508;53.158;6.614;2023-05-20T03:14:42;7.03;;;3.95;;
52614;SDS011;38508;53.158;6.614;2023-05-20T03:17:08;11.63;;;4.28;;
52614;SDS011;38508;53.158;6.614;2023-05-20T03:19:35;8.25;;;3.90;;
52614;SDS011;38508;53.158;6.614;2023-05-20T03:22:01;7.32;;;4.25;;
52614;SDS011;38508;53.158;6.614;2023-05-20T03:24:27;8.85;;;4.13;;
52614;SDS011;38508;53.158;6.614;2023-05-20T03:26:53;9.77;;;4.00;;
52614;SDS011;38508;53.158;6.614;2023-05-20T03:29:20;8.05;;;4.10;;
52614;SDS011;38508;53.158;6.614;2023-05-20T03:31:47;8.70;;;3.95;;
52614;SDS011;38508;53.158;6.614;2023-05-20T03:34:13;9.27;;;4.20;;
52614;SDS011;38508;53.158;6.614;2023-05-20T03:36:38;7.90;;;3.95;;
52614;SDS011;38508;53.158;6.614;2023-05-20T03:39:04;7.80;;;4.00;;
52614;SDS011;38508;53.158;6.614;2023-05-20T03:41:30;6.20;;;3.45;;
52614;SDS011;38508;53.158;6.614;2023-05-20T03:43:56;7.00;;;3.33;;
52614;SDS011;38508;53.158;6.614;2023-05-20T03:46:22;5.75;;;3.60;;
52614;SDS011;38508;53.158;6.614;2023-05-20T03:48:47;8.27;;;3.75;;
52614;SDS011;38508;53.158;6.614;2023-05-20T03:51:13;8.85;;;3.75;;
52614;SDS011;38508;53.158;6.614;2023-05-20T03:53:39;7.90;;;3.60;;
52614;SDS011;38508;53.158;6.614;2023-05-20T03:56:04;8.25;;;3.40;;
52614;SDS011;38508;53.158;6.614;2023-05-20T03:58:30;6.07;;;3.20;;
52614;SDS011;38508;53.158;6.614;2023-05-20T04:00:56;9.68;;;3.72;;
52614;SDS011;38508;53.158;6.614;2023-05-20T04:03:22;10.05;;;3.88;;
52614;SDS011;38508;53.158;6.614;2023-05-20T04:05:49;6.88;;;3.35;;
52614;SDS011;38508;53.158;6.614;2023-05-20T04:08:15;11.02;;;3.97;;
52614;SDS011;38508;53.158;6.614;2023-05-20T04:10:42;8.07;;;3.47;;
52614;SDS011;38508;53.158;6.614;2023-05-20T04:13:09;6.97;;;3.58;;
52614;SDS011;38508;53.158;6.614;2023-05-20T04:15:35;6.15;;;3.10;;
52614;SDS011;38508;53.158;6.614;2023-05-20T04:18:02;7.63;;;3.45;;
52614;SDS011;38508;53.158;6.614;2023-05-20T04:20:29;7.32;;;3.40;;
52614;SDS011;38508;53.158;6.614;2023-05-20T04:22:55;8.10;;;3.20;;
52614;SDS011;38508;53.158;6.614;2023-05-20T04:25:21;5.20;;;3.05;;
52614;SDS011;38508;53.158;6.614;2023-05-20T04:27:47;10.13;;;3.15;;
52614;SDS011;38508;53.158;6.614;2023-05-20T04:30:13;5.82;;;2.63;;
52614;SDS011;38508;53.158;6.614;2023-05-20T04:32:42;8.68;;;2.22;;
52614;SDS011;38508;53.158;6.614;2023-05-20T04:35:08;7.38;;;2.70;;
52614;SDS011;38508;53.158;6.614;2023-05-20T04:37:36;4.65;;;2.17;;
52614;SDS011;38508;53.158;6.614;2023-05-20T04:40:03;6.93;;;2.45;;
52614;SDS011;38508;53.158;6.614;2023-05-20T04:42:31;5.93;;;2.15;;
52614;SDS011;38508;53.158;6.614;2023-05-20T04:44:57;6.53;;;1.98;;
52614;SDS011;38508;53.158;6.614;2023-05-20T04:47:26;4.78;;;2.10;;
52614;SDS011;38508;53.158;6.614;2023-05-20T04:49:53;5.38;;;1.98;;
52614;SDS011;38508;53.158;6.614;2023-05-20T04:52:21;5.53;;;2.30;;
52614;SDS011;38508;53.158;6.614;2023-05-20T04:54:48;5.45;;;1.90;;
52614;SDS011;38508;53.158;6.614;2023-05-20T04:57:15;7.10;;;1.92;;
52614;SDS011;38508;53.158;6.614;2023-05-20T04:59:45;3.50;;;1.50;;
52614;SDS011;38508;53.158;6.614;2023-05-20T05:02:11;6.28;;;1.58;;
52614;SDS011;38508;53.158;6.614;2023-05-20T05:04:37;4.38;;;1.40;;
52614;SDS011;38508;53.158;6.614;2023-05-20T05:07:03;4.40;;;1.42;;
52614;SDS011;38508;53.158;6.614;2023-05-20T05:09:29;8.98;;;1.60;;
52614;SDS011;38508;53.158;6.614;2023-05-20T05:11:55;4.25;;;1.40;;
52614;SDS011;38508;53.158;6.614;2023-05-20T05:14:20;2.30;;;1.02;;
52614;SDS011;38508;53.158;6.614;2023-05-20T05:16:47;2.88;;;1.50;;
52614;SDS011;38508;53.158;6.614;2023-05-20T05:19:13;3.72;;;1.10;;
52614;SDS011;38508;53.158;6.614;2023-05-20T05:21:39;4.88;;;1.00;;
52614;SDS011;38508;53.158;6.614;2023-05-20T05:24:05;4.47;;;1.42;;
52614;SDS011;38508;53.158;6.614;2023-05-20T05:26:31;2.15;;;1.05;;
52614;SDS011;38508;53.158;6.614;2023-05-20T05:28:56;3.70;;;1.10;;
52614;SDS011;38508;53.158;6.614;2023-05-20T05:31:22;3.15;;;1.20;;
52614;SDS011;38508;53.158;6.614;2023-05-20T05:33:48;2.95;;;1.15;;
52614;SDS011;38508;53.158;6.614;2023-05-20T05:36:14;3.70;;;1.10;;
52614;SDS011;38508;53.158;6.614;2023-05-20T05:38:40;7.25;;;1.08;;
52614;SDS011;38508;53.158;6.614;2023-05-20T05:41:06;3.55;;;1.10;;
52614;SDS011;38508;53.158;6.614;2023-05-20T05:43:32;4.35;;;1.20;;
52614;SDS011;38508;53.158;6.614;2023-05-20T05:45:58;4.05;;;1.00;;
52614;SDS011;38508;53.158;6.614;2023-05-20T05:48:24;2.15;;;0.82;;
52614;SDS011;38508;53.158;6.614;2023-05-20T05:50:50;1.67;;;0.95;;
52614;SDS011;38508;53.158;6.614;2023-05-20T05:53:15;4.50;;;1.10;;
52614;SDS011;38508;53.158;6.614;2023-05-20T05:55:41;2.55;;;0.80;;
52614;SDS011;38508;53.158;6.614;2023-05-20T05:58:07;3.67;;;1.35;;
52614;SDS011;38508;53.158;6.614;2023-05-20T06:00:32;3.33;;;0.82;;
52614;SDS011;38508;53.158;6.614;2023-05-20T06:02:58;3.40;;;0.90;;
52614;SDS011;38508;53.158;6.614;2023-05-20T06:05:24;1.33;;;0.60;;
52614;SDS011;38508;53.158;6.614;2023-05-20T06:07:49;4.07;;;0.80;;
52614;SDS011;38508;53.158;6.614;2023-05-20T06:10:15;4.00;;;1.13;;
52614;SDS011;38508;53.158;6.614;2023-05-20T06:12:41;2.05;;;0.80;;
52614;SDS011;38508;53.158;6.614;2023-05-20T06:15:06;4.50;;;0.80;;
52614;SDS011;38508;53.158;6.614;2023-05-20T06:17:33;4.88;;;0.90;;
52614;SDS011;38508;53.158;6.614;2023-05-20T06:19:58;5.50;;;1.65;;
52614;SDS011;38508;53.158;6.614;2023-05-20T06:22:24;2.05;;;0.73;;
52614;SDS011;38508;53.158;6.614;2023-05-20T06:24:50;2.40;;;0.85;;
52614;SDS011;38508;53.158;6.614;2023-05-20T06:27:15;2.75;;;1.10;;
52614;SDS011;38508;53.158;6.614;2023-05-20T06:29:41;5.50;;;0.80;;
52614;SDS011;38508;53.158;6.614;2023-05-20T06:32:07;2.95;;;1.15;;
52614;SDS011;38508;53.158;6.614;2023-05-20T06:34:33;3.17;;;1.00;;
52614;SDS011;38508;53.158;6.614;2023-05-20T06:36:58;1.98;;;0.88;;
52614;SDS011;38508;53.158;6.614;2023-05-20T06:39:24;3.25;;;0.82;;
52614;SDS011;38508;53.158;6.614;2023-05-20T06:41:50;4.45;;;1.10;;
52614;SDS011;38508;53.158;6.614;2023-05-20T06:44:16;2.97;;;1.38;;
52614;SDS011;38508;53.158;6.614;2023-05-20T06:46:42;2.25;;;1.10;;
52614;SDS011;38508;53.158;6.614;2023-05-20T06:49:08;2.60;;;1.15;;
52614;SDS011;38508;53.158;6.614;2023-05-20T06:51:34;5.53;;;1.08;;
52614;SDS011;38508;53.158;6.614;2023-05-20T06:53:59;4.70;;;0.98;;
52614;SDS011;38508;53.158;6.614;2023-05-20T06:56:25;3.83;;;0.90;;
52614;SDS011;38508;53.158;6.614;2023-05-20T06:58:51;2.10;;;0.88;;
52614;SDS011;38508;53.158;6.614;2023-05-20T07:01:17;3.50;;;0.90;;
52614;SDS011;38508;53.158;6.614;2023-05-20T07:03:42;2.92;;;0.98;;
52614;SDS011;38508;53.158;6.614;2023-05-20T07:06:08;2.17;;;0.90;;
52614;SDS011;38508;53.158;6.614;2023-05-20T07:08:34;2.63;;;1.02;;
52614;SDS011;38508;53.158;6.614;2023-05-20T07:11:00;3.75;;;1.20;;
52614;SDS011;38508;53.158;6.614;2023-05-20T07:13:26;3.35;;;1.10;;
52614;SDS011;38508;53.158;6.614;2023-05-20T07:15:51;1.92;;;0.90;;
52614;SDS011;38508;53.158;6.614;2023-05-20T07:18:17;3.85;;;1.27;;
52614;SDS011;38508;53.158;6.614;2023-05-20T07:20:43;4.13;;;0.70;;
52614;SDS011;38508;53.158;6.614;2023-05-20T07:23:09;2.85;;;1.00;;
52614;SDS011;38508;53.158;6.614;2023-05-20T07:25:35;2.95;;;0.80;;
52614;SDS011;38508;53.158;6.614;2023-05-20T07:28:01;2.53;;;0.90;;
52614;SDS011;38508;53.158;6.614;2023-05-20T07:30:26;3.03;;;1.20;;
52614;SDS011;38508;53.158;6.614;2023-05-20T07:32:52;2.05;;;0.90;;
52614;SDS011;38508;53.158;6.614;2023-05-20T07:35:18;2.95;;;1.10;;
52614;SDS011;38508;53.158;6.614;2023-05-20T07:37:43;2.40;;;1.00;;
52614;SDS011;38508;53.158;6.614;2023-05-20T07:40:09;4.03;;;1.17;;
52614;SDS011;38508;53.158;6.614;2023-05-20T07:42:35;3.03;;;1.00;;
52614;SDS011;38508;53.158;6.614;2023-05-20T07:45:01;4.45;;;1.10;;
52614;SDS011;38508;53.158;6.614;2023-05-20T07:47:27;2.78;;;0.63;;
52614;SDS011;38508;53.158;6.614;2023-05-20T07:49:53;3.22;;;1.10;;
52614;SDS011;38508;53.158;6.614;2023-05-20T07:52:18;5.85;;;1.25;;
52614;SDS011;38508;53.158;6.614;2023-05-20T07:54:44;2.45;;;0.88;;
52614;SDS011;38508;53.158;6.614;2023-05-20T07:57:10;3.47;;;1.08;;
52614;SDS011;38508;53.158;6.614;2023-05-20T07:59:35;2.03;;;1.00;;
52614;SDS011;38508;53.158;6.614;2023-05-20T08:02:01;3.20;;;0.90;;
52614;SDS011;38508;53.158;6.614;2023-05-20T08:04:27;2.22;;;1.15;;
52614;SDS011;38508;53.158;6.614;2023-05-20T08:06:52;2.58;;;1.13;;
52614;SDS011;38508;53.158;6.614;2023-05-20T08:09:19;2.75;;;1.20;;
52614;SDS011;38508;53.158;6.614;2023-05-20T08:11:44;3.90;;;1.48;;
52614;SDS011;38508;53.158;6.614;2023-05-20T08:14:10;4.10;;;1.23;;
52614;SDS011;38508;53.158;6.614;2023-05-20T08:16:36;4.30;;;1.33;;
52614;SDS011;38508;53.158;6.614;2023-05-20T08:19:01;6.25;;;0.90;;
52614;SDS011;38508;53.158;6.614;2023-05-20T08:21:27;8.00;;;1.33;;
52614;SDS011;38508;53.158;6.614;2023-05-20T08:23:53;4.75;;;1.20;;
52614;SDS011;38508;53.158;6.614;2023-05-20T08:26:19;3.30;;;1.20;;
52614;SDS011;38508;53.158;6.614;2023-05-20T08:28:46;6.85;;;1.55;;
52614;SDS011;38508;53.158;6.614;2023-05-20T08:31:12;6.78;;;2.38;;
52614;SDS011;38508;53.158;6.614;2023-05-20T08:33:38;10.20;;;3.40;;
52614;SDS011;38508;53.158;6.614;2023-05-20T08:36:04;12.05;;;3.83;;
52614;SDS011;38508;53.158;6.614;2023-05-20T08:38:32;13.30;;;4.53;;
52614;SDS011;38508;53.158;6.614;2023-05-20T08:40:58;6.53;;;2.15;;
52614;SDS011;38508;53.158;6.614;2023-05-20T08:43:23;4.18;;;1.48;;
52614;SDS011;38508;53.158;6.614;2023-05-20T08:45:50;9.40;;;2.85;;
52614;SDS011;38508;53.158;6.614;2023-05-20T08:48:16;5.65;;;1.92;;
52614;SDS011;38508;53.158;6.614;2023-05-20T08:50:48;3.80;;;1.40;;
52614;SDS011;38508;53.158;6.614;2023-05-20T08:53:15;3.15;;;1.17;;
52614;SDS011;38508;53.158;6.614;2023-05-20T08:55:41;6.22;;;1.45;;
52614;SDS011;38508;53.158;6.614;2023-05-20T08:58:10;5.40;;;1.70;;
52614;SDS011;38508;53.158;6.614;2023-05-20T09:00:36;4.75;;;1.75;;
52614;SDS011;38508;53.158;6.614;2023-05-20T09:03:02;4.18;;;1.63;;
52614;SDS011;38508;53.158;6.614;2023-05-20T09:05:29;4.07;;;1.35;;
52614;SDS011;38508;53.158;6.614;2023-05-20T09:08:08;3.65;;;1.55;;
52614;SDS011;38508;53.158;6.614;2023-05-20T09:10:35;3.28;;;1.50;;
52614;SDS011;38508;53.158;6.614;2023-05-20T09:13:02;2.88;;;1.52;;
52614;SDS011;38508;53.158;6.614;2023-05-20T09:15:29;5.57;;;1.50;;
52614;SDS011;38508;53.158;6.614;2023-05-20T09:17:58;3.80;;;1.73;;
52614;SDS011;38508;53.158;6.614;2023-05-20T09:20:25;15.05;;;1.73;;
52614;SDS011;38508;53.158;6.614;2023-05-20T09:22:51;8.02;;;1.50;;
52614;SDS011;38508;53.158;6.614;2023-05-20T09:25:18;7.85;;;1.67;;
52614;SDS011;38508;53.158;6.614;2023-05-20T09:27:44;8.77;;;2.03;;
52614;SDS011;38508;53.158;6.614;2023-05-20T09:30:10;3.10;;;1.42;;
52614;SDS011;38508;53.158;6.614;2023-05-20T09:32:37;2.70;;;1.42;;
52614;SDS011;38508;53.158;6.614;2023-05-20T09:35:02;4.43;;;1.48;;
52614;SDS011;38508;53.158;6.614;2023-05-20T09:37:30;2.90;;;1.50;;
52614;SDS011;38508;53.158;6.614;2023-05-20T09:40:05;2.58;;;1.30;;
52614;SDS011;38508;53.158;6.614;2023-05-20T09:42:38;7.75;;;1.80;;
52614;SDS011;38508;53.158;6.614;2023-05-20T09:45:07;19.27;;;1.90;;
52614;SDS011;38508;53.158;6.614;2023-05-20T09:47:35;6.97;;;1.77;;
52614;SDS011;38508;53.158;6.614;2023-05-20T09:50:03;3.97;;;1.67;;
52614;SDS011;38508;53.158;6.614;2023-05-20T09:52:36;3.90;;;1.40;;
52614;SDS011;38508;53.158;6.614;2023-05-20T09:55:07;7.50;;;1.35;;
52614;SDS011;38508;53.158;6.614;2023-05-20T09:57:36;3.38;;;1.63;;
52614;SDS011;38508;53.158;6.614;2023-05-20T10:00:03;2.67;;;1.30;;
52614;SDS011;38508;53.158;6.614;2023-05-20T10:02:30;3.55;;;1.30;;
52614;SDS011;38508;53.158;6.614;2023-05-20T10:04:58;3.45;;;1.42;;
52614;SDS011;38508;53.158;6.614;2023-05-20T10:07:42;3.50;;;1.50;;
52614;SDS011;38508;53.158;6.614;2023-05-20T10:13:12;4.38;;;1.63;;
52614;SDS011;38508;53.158;6.614;2023-05-20T10:18:55;3.60;;;1.40;;
52614;SDS011;38508;53.158;6.614;2023-05-20T10:21:29;9.55;;;1.83;;
52614;SDS011;38508;53.158;6.614;2023-05-20T10:24:04;10.02;;;1.70;;
52614;SDS011;38508;53.158;6.614;2023-05-20T10:26:38;6.30;;;1.48;;
52614;SDS011;38508;53.158;6.614;2023-05-20T10:29:14;4.78;;;1.65;;
52614;SDS011;38508;53.158;6.614;2023-05-20T10:31:48;5.70;;;1.55;;
52614;SDS011;38508;53.158;6.614;2023-05-20T10:34:15;4.22;;;1.42;;
52614;SDS011;38508;53.158;6.614;2023-05-20T10:36:55;5.05;;;1.70;;
52614;SDS011;38508;53.158;6.614;2023-05-20T10:39:29;3.03;;;1.40;;
52614;SDS011;38508;53.158;6.614;2023-05-20T10:42:04;7.07;;;1.50;;
52614;SDS011;38508;53.158;6.614;2023-05-20T10:44:44;2.53;;;1.40;;
52614;SDS011;38508;53.158;6.614;2023-05-20T10:47:11;5.60;;;1.70;;
52614;SDS011;38508;53.158;6.614;2023-05-20T10:49:44;4.10;;;1.58;;
52614;SDS011;38508;53.158;6.614;2023-05-20T10:52:10;5.43;;;1.50;;
52614;SDS011;38508;53.158;6.614;2023-05-20T10:54:45;4.82;;;1.80;;
52614;SDS011;38508;53.158;6.614;2023-05-20T10:57:12;5.28;;;1.60;;
52614;SDS011;38508;53.158;6.614;2023-05-20T10:59:38;3.40;;;1.83;;
52614;SDS011;38508;53.158;6.614;2023-05-20T11:02:04;4.70;;;1.20;;
52614;SDS011;38508;53.158;6.614;2023-05-20T11:04:31;5.35;;;1.60;;
52614;SDS011;38508;53.158;6.614;2023-05-20T11:06:57;4.30;;;1.60;;
52614;SDS011;38508;53.158;6.614;2023-05-20T11:09:23;6.15;;;1.30;;
52614;SDS011;38508;53.158;6.614;2023-05-20T11:11:49;2.53;;;1.23;;
52614;SDS011;38508;53.158;6.614;2023-05-20T11:14:16;6.68;;;1.30;;
52614;SDS011;38508;53.158;6.614;2023-05-20T11:16:44;2.70;;;1.35;;
52614;SDS011;38508;53.158;6.614;2023-05-20T11:19:13;4.60;;;1.67;;
52614;SDS011;38508;53.158;6.614;2023-05-20T11:21:45;3.08;;;1.50;;
52614;SDS011;38508;53.158;6.614;2023-05-20T11:24:12;5.10;;;1.52;;
52614;SDS011;38508;53.158;6.614;2023-05-20T11:26:38;4.05;;;1.42;;
52614;SDS011;38508;53.158;6.614;2023-05-20T11:29:04;5.95;;;1.70;;
52614;SDS011;38508;53.158;6.614;2023-05-20T11:31:31;3.90;;;1.30;;
52614;SDS011;38508;53.158;6.614;2023-05-20T11:33:59;6.43;;;1.38;;
52614;SDS011;38508;53.158;6.614;2023-05-20T11:36:26;11.15;;;1.75;;
52614;SDS011;38508;53.158;6.614;2023-05-20T11:38:56;8.48;;;2.25;;
52614;SDS011;38508;53.158;6.614;2023-05-20T11:41:26;10.32;;;2.58;;
52614;SDS011;38508;53.158;6.614;2023-05-20T11:43:59;3.22;;;1.42;;
52614;SDS011;38508;53.158;6.614;2023-05-20T11:46:25;3.08;;;1.38;;
52614;SDS011;38508;53.158;6.614;2023-05-20T11:48:55;4.18;;;1.67;;
52614;SDS011;38508;53.158;6.614;2023-05-20T11:51:28;2.90;;;1.20;;
52614;SDS011;38508;53.158;6.614;2023-05-20T11:54:00;3.80;;;1.15;;
52614;SDS011;38508;53.158;6.614;2023-05-20T11:56:27;4.32;;;1.65;;
52614;SDS011;38508;53.158;6.614;2023-05-20T11:58:55;4.40;;;1.60;;
52614;SDS011;38508;53.158;6.614;2023-05-20T12:01:23;4.63;;;1.40;;
52614;SDS011;38508;53.158;6.614;2023-05-20T12:03:49;4.50;;;1.40;;
52614;SDS011;38508;53.158;6.614;2023-05-20T12:06:35;4.60;;;1.35;;
52614;SDS011;38508;53.158;6.614;2023-05-20T12:09:04;7.10;;;2.08;;
52614;SDS011;38508;53.158;6.614;2023-05-20T12:11:34;6.00;;;2.35;;
52614;SDS011;38508;53.158;6.614;2023-05-20T12:14:01;3.38;;;1.40;;
52614;SDS011;38508;53.158;6.614;2023-05-20T12:16:29;5.00;;;1.80;;
52614;SDS011;38508;53.158;6.614;2023-05-20T12:18:56;6.72;;;2.13;;
52614;SDS011;38508;53.158;6.614;2023-05-20T12:21:21;3.80;;;1.90;;
52614;SDS011;38508;53.158;6.614;2023-05-20T12:23:47;4.85;;;2.25;;
52614;SDS011;38508;53.158;6.614;2023-05-20T12:26:13;5.03;;;1.38;;
52614;SDS011;38508;53.158;6.614;2023-05-20T12:28:38;4.03;;;1.75;;
52614;SDS011;38508;53.158;6.614;2023-05-20T12:31:04;5.95;;;2.15;;
52614;SDS011;38508;53.158;6.614;2023-05-20T12:33:30;6.28;;;2.70;;
52614;SDS011;38508;53.158;6.614;2023-05-20T12:35:56;7.10;;;2.83;;
52614;SDS011;38508;53.158;6.614;2023-05-20T12:38:21;5.25;;;1.70;;
52614;SDS011;38508;53.158;6.614;2023-05-20T12:40:47;5.47;;;1.70;;
52614;SDS011;38508;53.158;6.614;2023-05-20T12:43:13;5.05;;;2.45;;
52614;SDS011;38508;53.158;6.614;2023-05-20T12:45:39;6.65;;;2.65;;
52614;SDS011;38508;53.158;6.614;2023-05-20T12:48:04;13.63;;;2.97;;
52614;SDS011;38508;53.158;6.614;2023-05-20T12:50:31;8.07;;;2.80;;
52614;SDS011;38508;53.158;6.614;2023-05-20T12:52:57;7.25;;;2.53;;
52614;SDS011;38508;53.158;6.614;2023-05-20T12:55:24;7.43;;;3.00;;
52614;SDS011;38508;53.158;6.614;2023-05-20T12:57:50;5.30;;;2.70;;
52614;SDS011;38508;53.158;6.614;2023-05-20T13:00:16;7.38;;;2.30;;
52614;SDS011;38508;53.158;6.614;2023-05-20T13:02:41;7.10;;;2.70;;
52614;SDS011;38508;53.158;6.614;2023-05-20T13:05:07;5.38;;;3.00;;
52614;SDS011;38508;53.158;6.614;2023-05-20T13:07:34;13.10;;;2.97;;
52614;SDS011;38508;53.158;6.614;2023-05-20T13:10:00;16.63;;;3.38;;
52614;SDS011;38508;53.158;6.614;2023-05-20T13:12:25;5.38;;;2.80;;
52614;SDS011;38508;53.158;6.614;2023-05-20T13:14:51;11.18;;;3.15;;
52614;SDS011;38508;53.158;6.614;2023-05-20T13:17:17;7.85;;;2.92;;
52614;SDS011;38508;53.158;6.614;2023-05-20T13:19:43;7.20;;;2.83;;
52614;SDS011;38508;53.158;6.614;2023-05-20T13:22:10;7.45;;;2.58;;
52614;SDS011;38508;53.158;6.614;2023-05-20T13:24:36;7.13;;;2.83;;
52614;SDS011;38508;53.158;6.614;2023-05-20T13:27:02;4.32;;;2.13;;
52614;SDS011;38508;53.158;6.614;2023-05-20T13:29:28;3.90;;;1.90;;
52614;SDS011;38508;53.158;6.614;2023-05-20T13:31:57;5.50;;;2.40;;
52614;SDS011;38508;53.158;6.614;2023-05-20T13:34:23;8.63;;;2.58;;
52614;SDS011;38508;53.158;6.614;2023-05-20T13:36:48;9.02;;;2.63;;
52614;SDS011;38508;53.158;6.614;2023-05-20T13:39:15;6.72;;;2.20;;
52614;SDS011;38508;53.158;6.614;2023-05-20T13:41:41;6.97;;;2.50;;
52614;SDS011;38508;53.158;6.614;2023-05-20T13:44:07;6.28;;;2.80;;
52614;SDS011;38508;53.158;6.614;2023-05-20T13:46:33;9.35;;;2.85;;
52614;SDS011;38508;53.158;6.614;2023-05-20T13:48:58;8.65;;;2.40;;
52614;SDS011;38508;53.158;6.614;2023-05-20T13:51:24;9.52;;;2.47;;
52614;SDS011;38508;53.158;6.614;2023-05-20T13:53:50;9.63;;;2.67;;
52614;SDS011;38508;53.158;6.614;2023-05-20T13:56:16;6.00;;;2.58;;
52614;SDS011;38508;53.158;6.614;2023-05-20T13:58:42;6.45;;;2.13;;
52614;SDS011;38508;53.158;6.614;2023-05-20T14:01:07;5.47;;;2.25;;
52614;SDS011;38508;53.158;6.614;2023-05-20T14:03:33;6.13;;;2.20;;
52614;SDS011;38508;53.158;6.614;2023-05-20T14:06:01;4.90;;;2.15;;
52614;SDS011;38508;53.158;6.614;2023-05-20T14:08:27;3.50;;;2.20;;
52614;SDS011;38508;53.158;6.614;2023-05-20T14:10:52;8.35;;;2.75;;
52614;SDS011;38508;53.158;6.614;2023-05-20T14:13:20;9.57;;;2.15;;
52614;SDS011;38508;53.158;6.614;2023-05-20T14:15:46;3.35;;;2.10;;
52614;SDS011;38508;53.158;6.614;2023-05-20T14:18:13;4.97;;;1.90;;
52614;SDS011;38508;53.158;6.614;2023-05-20T14:20:38;8.73;;;2.33;;
52614;SDS011;38508;53.158;6.614;2023-05-20T14:23:04;7.07;;;1.95;;
52614;SDS011;38508;53.158;6.614;2023-05-20T14:25:30;6.50;;;1.63;;
52614;SDS011;38508;53.158;6.614;2023-05-20T14:27:55;3.85;;;1.50;;
52614;SDS011;38508;53.158;6.614;2023-05-20T14:30:21;4.03;;;1.92;;
52614;SDS011;38508;53.158;6.614;2023-05-20T14:32:47;2.08;;;1.35;;
52614;SDS011;38508;53.158;6.614;2023-05-20T14:35:12;4.78;;;1.30;;
52614;SDS011;38508;53.158;6.614;2023-05-20T14:37:38;6.55;;;1.75;;
52614;SDS011;38508;53.158;6.614;2023-05-20T14:40:04;4.80;;;1.83;;
52614;SDS011;38508;53.158;6.614;2023-05-20T14:42:31;7.82;;;2.30;;
52614;SDS011;38508;53.158;6.614;2023-05-20T14:44:57;5.22;;;1.92;;
52614;SDS011;38508;53.158;6.614;2023-05-20T14:47:23;3.85;;;1.38;;
52614;SDS011;38508;53.158;6.614;2023-05-20T14:49:49;6.43;;;1.90;;